Coaldale, Canada
Current Conditions -  °F | °C
As of 3:00 PM on Friday 24 Oct 2014 (Local Time) from CYQL Reporting Station
Broken Clouds Broken Clouds  
Wind Chill: 55°   Ceiling: 30000
Heat Index: 55°   Visibility: 40mi
Dew Point: 25°   Wind: 32mph
Humidity: 31%   Direction: 250°WSW
Pressure: 29.95"   Gusts: 43mph
Location:  49.73°N, 112.6°W
Report Text: CYQL 242100Z 25028G37KT 40SM FEW060 FEW110 BKN300 13/M04 A2995 RMK SC1AC1CI7 SC TR AC TR SLP155 DENSITY ALT 3500FT
Loading
Personal Weather Stations






























Interactive Weather Map
Tropical Storm Tracking
New forecast layout! Learn more

10-Day Weather Forecast

Advertisements
Track Severe Weather on mobile